SLSA/SBL METAR and TAF weather

Enter ICAO airport designator
Station Type Date Time Source
SLSA METAR 2019/06/16 23:00 UTC NOAA

SLSA 162300Z 00000KT 9999 SCT020 FEW023CB BKN200 25/23 Q1013


Station Type Date Time Source
SLSA Decoded METAR 2019/06/16 23:00 UTC NOAA

Santa Ana, Bolivia (SLSA) 13-46S 065-26W
Jun 16, 2019 - 07:00 PM EDT / 2019.06.16 2300 UTC
Wind: Calm:0
Visibility: greater than 7 mile(s):0
Sky conditions: mostly cloudy
Weather: Cumulonimbus clouds observed
Temperature: 77 F (25 C)
Dew Point: 73 F (23 C)
Relative Humidity: 88%
Pressure (altimeter): 29.91 in. Hg (1013 hPa)
ob: SLSA 162300Z 00000KT 9999 SCT020 FEW023CB BKN200 25/23 Q1013
cycle: 23

Station Type Date Time Source
SLSA TAF 2009/01/07 11:00 UTC NOAA

METAR SLSA 071100Z 00000KT 9999 FEW020 BKN080 26/24 Q1009

Example: see airport list